Time;durP1;ratioP1;P1;durP2;ratioP2;P2;SDS_P1;SDS_P2;PMS_P1;PMS_P2;Temp;Humidity;BMP_temperature;BMP_pressure;BME280_temperature;BME280_humidity;BME280_pressure;Samples;Min_cycle;Max_cycle;Signal;HPM_P1;HPM_P2
2023/01/21 00:03:50;;;;;;;76.40;44.40;;;;;;;0.49;100.00;100645.33;179097;1264;46818;-88
2023/01/21 00:07:54;;;;;;;70.70;42.80;;;;;;;0.48;100.00;100638.02;178217;1263;46035;-88
2023/01/21 00:12:01;;;;;;;67.50;34.00;;;;;;;0.49;100.00;100641.46;179092;1260;62448;-89
2023/01/21 00:16:06;;;;;;;58.30;33.10;;;;;;;0.49;99.66;100653.00;178324;1262;46049;-89
2023/01/21 00:20:12;;;;;;;53.10;35.30;;;;;;;0.50;99.31;100651.72;179111;1263;46157;-89
2023/01/21 00:24:17;;;;;;;58.10;34.40;;;;;;;0.41;98.50;100656.73;179142;1263;45991;-90
2023/01/21 00:28:21;;;;;;;59.00;33.70;;;;;;;0.42;98.08;100662.81;179490;1261;44846;-90
2023/01/21 00:32:25;;;;;;;54.10;34.80;;;;;;;0.40;97.07;100670.54;179021;1262;59128;-90
2023/01/21 00:36:28;;;;;;;54.70;32.00;;;;;;;0.40;97.75;100668.80;179097;1262;46033;-90
2023/01/21 00:40:32;;;;;;;58.30;35.60;;;;;;;0.42;98.49;100670.30;179534;1263;45273;-89
2023/01/21 00:44:39;;;;;;;63.50;36.60;;;;;;;0.45;99.27;100671.77;179657;1264;45128;-89
2023/01/21 00:48:44;;;;;;;64.60;40.00;;;;;;;0.46;99.75;100682.21;179879;1262;44522;-91
2023/01/21 00:52:48;;;;;;;76.30;42.80;;;;;;;0.49;99.89;100687.90;179790;1262;60939;-90
2023/01/21 00:57:08;;;;;;;55.90;33.10;;;;;;;0.48;99.13;100688.80;180000;1263;46080;-91
2023/01/21 01:01:18;;;;;;;57.20;31.60;;;;;;;0.44;97.66;100690.85;179225;1262;45981;-88
2023/01/21 01:05:22;;;;;;;50.90;28.80;;;;;;;0.40;97.45;100694.98;179647;1263;45075;-90
2023/01/21 01:09:29;;;;;;;53.90;30.30;;;;;;;0.38;96.57;100704.64;179769;1262;44771;-90
2023/01/21 01:13:55;;;;;;;46.90;25.80;;;;;;;0.36;95.69;100700.87;179991;1262;60764;-91
2023/01/21 01:18:15;;;;;;;43.90;25.20;;;;;;;0.40;95.36;100700.20;179920;1263;44157;-90
2023/01/21 01:22:19;;;;;;;51.40;29.60;;;;;;;0.41;96.01;100704.02;179780;1262;44667;-90
2023/01/21 01:26:23;;;;;;;43.70;27.90;;;;;;;0.44;96.02;100698.01;178544;1261;45300;-89
2023/01/21 01:30:28;;;;;;;53.60;31.00;;;;;;;0.46;96.33;100701.77;179618;1260;46151;-91
2023/01/21 01:34:31;;;;;;;53.00;30.30;;;;;;;0.44;95.12;100693.98;178963;1260;59516;-90
2023/01/21 01:38:35;;;;;;;39.60;25.50;;;;;;;0.43;94.64;100692.81;178468;1260;45984;-90
2023/01/21 01:42:38;;;;;;;41.00;24.80;;;;;;;0.38;96.18;100698.36;178525;1260;46142;-90
2023/01/21 01:46:46;;;;;;;39.70;26.10;;;;;;;0.34;97.93;100697.96;179397;1260;50012;-90
2023/01/21 01:50:50;;;;;;;47.00;30.50;;;;;;;0.27;99.64;100708.50;178678;1260;45928;-89
2023/01/21 01:54:59;;;;;;;47.10;28.30;;;;;;;0.18;100.00;100712.08;179548;1260;57966;-90
2023/01/21 02:03:58;;;;;;;45.30;28.80;;;;;;;0.06;100.00;100715.23;143387;1272;76866;-59
2023/01/21 02:08:31;;;;;;;38.30;24.00;;;;;;;0.06;100.00;100707.92;180200;1258;75034;-59
2023/01/21 02:12:39;;;;;;;43.50;24.00;;;;;;;0.06;100.00;100708.45;180498;1260;43651;-58
2023/01/21 02:17:24;;;;;;;46.30;26.50;;;;;;;0.06;100.00;100722.92;180328;1259;58451;-61
2023/01/21 02:21:49;;;;;;;49.00;25.80;;;;;;;0.08;100.00;100717.27;180287;1261;43682;-59
2023/01/21 02:32:15;;;;;;;36.20;22.80;;;;;;;0.06;100.00;100707.23;180459;1259;44008;-59
2023/01/21 02:36:20;;;;;;;40.00;25.40;;;;;;;0.00;100.00;100716.64;180396;1263;46035;-58
2023/01/21 02:45:31;;;;;;;42.20;24.50;;;;;;;-0.06;100.00;100722.59;180140;1261;45920;-57
2023/01/21 02:49:45;;;;;;;38.50;22.20;;;;;;;-0.04;100.00;100718.85;180078;1259;43662;-57
2023/01/21 02:54:42;;;;;;;;;;;;;;;-0.06;100.00;100718.73;179595;1270;43595;-57
2023/01/21 02:58:59;;;;;;;55.30;25.70;;;;;;;-0.03;100.00;100725.64;179600;1267;46065;-57
2023/01/21 03:03:10;;;;;;;45.70;25.80;;;;;;;-0.04;100.00;100707.88;179564;1268;58620;-58
2023/01/21 03:12:41;;;;;;;45.40;25.00;;;;;;;-0.14;100.00;100710.77;180106;1266;43574;-56
2023/01/21 03:21:35;;;;;;;41.20;25.20;;;;;;;-0.15;100.00;100705.24;179948;1262;43528;-56
2023/01/21 03:25:39;;;;;;;45.00;24.40;;;;;;;-0.11;100.00;100715.27;180054;1261;57875;-60
2023/01/21 03:29:48;;;;;;;45.10;23.90;;;;;;;-0.08;100.00;100712.70;179920;1262;43594;-59
2023/01/21 03:33:59;;;;;;;53.40;28.20;;;;;;;-0.06;100.00;100711.42;179998;1262;44647;-59
2023/01/21 03:42:58;;;;;;;41.40;28.10;;;;;;;-0.17;100.00;100698.86;179351;1268;46459;-59
2023/01/21 03:47:14;;;;;;;44.40;24.80;;;;;;;-0.11;100.00;100696.22;179484;1273;60308;-58
2023/01/21 03:55:55;;;;;;;42.70;24.90;;;;;;;-0.09;100.00;100704.00;179601;1268;45998;-57
2023/01/21 03:59:58;;;;;;;40.50;22.70;;;;;;;-0.07;100.00;100701.53;179249;1268;46026;-58
2023/01/21 04:04:01;;;;;;;38.10;22.70;;;;;;;-0.11;100.00;100700.21;179155;1270;43957;-58
2023/01/21 04:08:04;;;;;;;42.10;23.90;;;;;;;-0.17;100.00;100687.19;179245;1269;59218;-58
2023/01/21 04:12:07;;;;;;;50.80;24.50;;;;;;;-0.19;100.00;100690.19;179277;1270;43564;-58
2023/01/21 04:17:11;;;;;;;41.70;22.80;;;;;;;-0.18;100.00;100680.77;179477;1268;43545;-58
2023/01/21 04:21:16;;;;;;;40.20;23.30;;;;;;;-0.24;100.00;100674.14;180320;1262;45906;-58
2023/01/21 04:25:19;;;;;;;47.20;24.70;;;;;;;-0.24;100.00;100674.30;180121;1262;45913;-57
2023/01/21 04:29:22;;;;;;;38.60;24.50;;;;;;;-0.21;100.00;100682.05;180191;1262;57836;-58
2023/01/21 04:33:40;;;;;;;42.00;25.10;;;;;;;-0.19;100.00;100678.69;180228;1265;43763;-58
2023/01/21 04:37:43;;;;;;;48.00;26.10;;;;;;;-0.16;100.00;100682.44;180128;1263;46023;-58
2023/01/21 04:41:49;;;;;;;41.70;26.80;;;;;;;-0.16;100.00;100681.04;180261;1263;46035;-57
2023/01/21 04:45:53;;;;;;;31.40;18.90;;;;;;;-0.17;100.00;100678.80;180156;1262;43526;-58
2023/01/21 04:50:10;;;;;;;38.70;24.30;;;;;;;-0.19;100.00;100681.48;180098;1261;59493;-58
2023/01/21 04:54:14;;;;;;;43.00;22.40;;;;;;;-0.15;100.00;100685.20;180241;1261;45933;-57
2023/01/21 04:58:19;;;;;;;33.60;21.70;;;;;;;-0.18;100.00;100683.89;180213;1264;44030;-58
2023/01/21 05:03:17;;;;;;;40.30;26.00;;;;;;;-0.17;100.00;100684.39;180012;1264;45005;-59
2023/01/21 05:07:19;;;;;;;36.00;20.70;;;;;;;-0.12;100.00;100683.04;180195;1265;43583;-57
2023/01/21 05:11:23;;;;;;;47.70;22.60;;;;;;;-0.11;100.00;100683.85;180029;1264;59911;-58
2023/01/21 05:15:26;;;;;;;43.80;23.80;;;;;;;-0.09;100.00;100686.41;180152;1260;43533;-57
2023/01/21 05:19:32;;;;;;;40.80;25.50;;;;;;;-0.10;100.00;100686.95;180013;1263;45943;-57
2023/01/21 05:23:35;;;;;;;35.50;21.60;;;;;;;-0.03;100.00;100684.48;180175;1261;43573;-57
2023/01/21 05:28:00;;;;;;;39.40;24.40;;;;;;;0.02;100.00;100679.80;180439;1262;46138;-60
2023/01/21 05:32:04;;;;;;;35.50;19.70;;;;;;;0.04;100.00;100675.91;180277;1262;57368;-57
2023/01/21 05:36:08;;;;;;;37.00;19.90;;;;;;;0.05;100.00;100670.11;180358;1262;43575;-57
2023/01/21 05:40:14;;;;;;;35.40;19.20;;;;;;;0.03;100.00;100675.22;180179;1264;43639;-58
2023/01/21 05:44:18;;;;;;;32.10;18.80;;;;;;;0.02;100.00;100675.77;180054;1262;46141;-57
2023/01/21 05:48:22;;;;;;;35.50;20.80;;;;;;;0.01;100.00;100681.41;180277;1260;43551;-58
2023/01/21 05:52:25;;;;;;;33.50;18.70;;;;;;;0.05;100.00;100676.05;180071;1262;58468;-60
2023/01/21 05:56:28;;;;;;;33.20;20.10;;;;;;;0.03;100.00;100671.23;180427;1262;45975;-57
2023/01/21 06:00:31;;;;;;;33.40;21.30;;;;;;;0.03;100.00;100669.84;180315;1263;43873;-60
2023/01/21 06:04:34;;;;;;;25.10;17.20;;;;;;;0.04;100.00;100662.46;180148;1264;45867;-59
2023/01/21 06:09:03;;;;;;;33.20;23.70;;;;;;;0.09;100.00;100659.17;180195;1262;46063;-58
2023/01/21 06:13:07;;;;;;;35.10;17.90;;;;;;;0.13;100.00;100661.84;180121;1262;57414;-58
2023/01/21 06:17:10;;;;;;;32.30;21.40;;;;;;;0.09;100.00;100652.20;180129;1264;46012;-60
2023/01/21 06:21:13;;;;;;;39.50;21.60;;;;;;;0.10;100.00;100651.63;180254;1265;43634;-58
2023/01/21 06:25:16;;;;;;;29.20;19.90;;;;;;;0.14;100.00;100659.34;179987;1260;44724;-58
2023/01/21 06:29:19;;;;;;;34.30;19.30;;;;;;;0.14;100.00;100654.83;180202;1260;45027;-58
2023/01/21 06:33:22;;;;;;;32.60;18.80;;;;;;;0.10;100.00;100653.70;180104;1260;58940;-58
2023/01/21 06:37:25;;;;;;;31.40;20.00;;;;;;;0.08;100.00;100646.99;180241;1260;45943;-56
2023/01/21 06:41:35;;;;;;;37.90;18.30;;;;;;;0.09;100.00;100652.37;180263;1262;43685;-58
2023/01/21 06:45:38;;;;;;;34.70;18.40;;;;;;;0.10;100.00;100648.49;180147;1260;43567;-58
2023/01/21 06:50:11;;;;;;;37.60;20.50;;;;;;;0.15;100.00;100654.62;180213;1260;44884;-58
2023/01/21 06:54:14;;;;;;;26.70;16.60;;;;;;;0.18;100.00;100652.06;180201;1262;58059;-57
2023/01/21 06:58:17;;;;;;;30.80;16.80;;;;;;;0.16;100.00;100649.52;180044;1260;43558;-57
2023/01/21 07:02:20;;;;;;;31.90;18.90;;;;;;;0.17;100.00;100644.95;180302;1264;43623;-58
2023/01/21 07:06:24;;;;;;;32.00;19.60;;;;;;;0.17;100.00;100648.27;180151;1264;46121;-60
2023/01/21 07:10:27;;;;;;;29.20;18.90;;;;;;;0.20;100.00;100647.48;180216;1260;45321;-59
2023/01/21 07:14:30;;;;;;;37.20;20.30;;;;;;;0.20;100.00;100644.86;180335;1260;58409;-59
2023/01/21 07:18:33;;;;;;;36.00;20.40;;;;;;;0.22;100.00;100645.69;180221;1260;43793;-58
2023/01/21 07:22:37;;;;;;;31.80;19.30;;;;;;;0.22;100.00;100641.66;180362;1260;43664;-59
2023/01/21 07:26:42;;;;;;;32.80;18.70;;;;;;;0.23;100.00;100640.58;180283;1260;45978;-58
2023/01/21 07:31:36;;;;;;;26.40;18.70;;;;;;;0.26;100.00;100640.64;180428;1260;43682;-58
2023/01/21 07:35:40;;;;;;;26.60;18.00;;;;;;;0.30;100.00;100637.36;180234;1260;58386;-58
2023/01/21 07:39:59;;;;;;;29.80;17.00;;;;;;;0.27;100.00;100631.91;180272;1260;45082;-57
2023/01/21 07:44:02;;;;;;;29.80;17.00;;;;;;;0.28;100.00;100627.33;180400;1260;46064;-61
2023/01/21 07:48:05;;;;;;;31.80;18.40;;;;;;;0.34;100.00;100627.13;180397;1260;45987;-59
2023/01/21 07:52:39;;;;;;;34.40;18.60;;;;;;;0.34;100.00;100619.64;180360;1259;44795;-59
2023/01/21 07:56:43;;;;;;;28.60;18.90;;;;;;;0.35;100.00;100622.38;180271;1260;57983;-57
2023/01/21 08:00:46;;;;;;;31.00;17.00;;;;;;;0.41;100.00;100624.46;180506;1259;46557;-59
2023/01/21 08:04:58;;;;;;;28.70;18.60;;;;;;;0.42;100.00;100620.59;180412;1259;43804;-58
2023/01/21 08:09:03;;;;;;;28.80;16.60;;;;;;;0.46;100.00;100605.99;180495;1261;44863;-59
2023/01/21 08:13:10;;;;;;;26.00;16.50;;;;;;;0.48;100.00;100605.91;180229;1259;44389;-58
2023/01/21 08:17:14;;;;;;;35.60;19.50;;;;;;;0.49;100.00;100606.89;180103;1262;58686;-58
2023/01/21 08:21:19;;;;;;;24.80;15.10;;;;;;;0.50;100.00;100607.39;180148;1260;44808;-59
2023/01/21 08:25:24;;;;;;;23.60;14.60;;;;;;;0.47;100.00;100608.73;180132;1259;45017;-58
2023/01/21 08:29:28;;;;;;;23.50;15.90;;;;;;;0.50;100.00;100598.85;180304;1260;43579;-58
2023/01/21 08:33:30;;;;;;;29.80;18.30;;;;;;;0.49;100.00;100593.82;180181;1261;43630;-58
2023/01/21 08:37:33;;;;;;;28.10;15.40;;;;;;;0.48;100.00;100597.33;180232;1260;58044;-58
2023/01/21 08:42:35;;;;;;;25.30;14.20;;;;;;;0.56;100.00;100599.16;180277;1260;43758;-63
2023/01/21 08:46:38;;;;;;;30.60;18.00;;;;;;;0.64;100.00;100590.00;180478;1259;45010;-61
2023/01/21 08:50:41;;;;;;;30.60;16.40;;;;;;;0.70;100.00;100590.45;180285;1259;43557;-59
2023/01/21 08:54:44;;;;;;;24.90;14.00;;;;;;;0.80;100.00;100587.16;180188;1262;46087;-61
2023/01/21 08:58:54;;;;;;;30.00;18.40;;;;;;;0.81;100.00;100582.59;180289;1260;57960;-60
2023/01/21 09:02:59;;;;;;;24.70;17.10;;;;;;;0.85;100.00;100584.16;180246;1259;45909;-57
2023/01/21 09:07:03;;;;;;;27.50;14.10;;;;;;;0.86;100.00;100577.67;180107;1260;43563;-59
2023/01/21 09:11:08;;;;;;;24.80;15.10;;;;;;;0.92;100.00;100578.70;180495;1260;44588;-62
2023/01/21 09:15:11;;;;;;;23.20;11.50;;;;;;;1.01;100.00;100578.15;180392;1260;43461;-63
2023/01/21 09:19:24;;;;;;;30.10;14.30;;;;;;;1.08;100.00;100570.05;180267;1260;58431;-60
2023/01/21 09:23:31;;;;;;;21.40;15.20;;;;;;;1.16;100.00;100571.87;180372;1259;45117;-60
2023/01/21 09:27:33;;;;;;;15.00;11.00;;;;;;;1.21;100.00;100568.00;180150;1260;43578;-60
2023/01/21 09:31:40;;;;;;;17.00;12.00;;;;;;;1.28;100.00;100564.92;180082;1260;45991;-62
2023/01/21 09:35:44;;;;;;;21.70;12.40;;;;;;;1.37;100.00;100572.29;180176;1260;44155;-62
2023/01/21 09:39:51;;;;;;;21.30;13.30;;;;;;;1.40;100.00;100575.48;180065;1259;57920;-63
2023/01/21 09:44:05;;;;;;;18.10;11.70;;;;;;;1.53;100.00;100582.32;180097;1259;44826;-63
2023/01/21 09:48:19;;;;;;;23.70;12.00;;;;;;;1.63;100.00;100587.20;180076;1259;44780;-62
2023/01/21 09:52:29;;;;;;;16.30;11.50;;;;;;;1.69;100.00;100587.81;180099;1260;46006;-63
2023/01/21 09:56:57;;;;;;;19.40;11.30;;;;;;;1.79;100.00;100587.59;180039;1261;45013;-63
2023/01/21 10:01:28;;;;;;;16.50;11.40;;;;;;;1.88;100.00;100579.17;179870;1260;59112;-63
2023/01/21 10:10:58;;;;;;;18.50;11.30;;;;;;;2.02;100.00;100569.17;180221;1260;44605;-61
2023/01/21 10:15:30;;;;;;;18.40;10.20;;;;;;;2.06;100.00;100560.77;180201;1259;46359;-62
2023/01/21 10:19:49;;;;;;;15.70;10.50;;;;;;;2.15;100.00;100561.80;180188;1259;43995;-67
2023/01/21 10:24:25;;;;;;;21.20;11.20;;;;;;;2.21;100.00;100557.73;180274;1260;58967;-63
2023/01/21 10:28:32;;;;;;;9.90;7.80;;;;;;;2.27;100.00;100554.66;180164;1259;45329;-64
2023/01/21 10:32:38;;;;;;;9.40;7.30;;;;;;;2.31;100.00;100550.79;180192;1259;43736;-63
2023/01/21 10:37:17;;;;;;;17.40;9.00;;;;;;;2.33;100.00;100547.92;180158;1260;43755;-62
2023/01/21 10:41:48;;;;;;;14.50;8.00;;;;;;;2.42;100.00;100536.50;180164;1262;44994;-65
2023/01/21 10:46:00;;;;;;;12.50;8.70;;;;;;;2.51;100.00;100533.86;180092;1260;58428;-65
2023/01/21 10:50:12;;;;;;;10.40;7.00;;;;;;;2.57;100.00;100532.88;180012;1260;46040;-66
2023/01/21 10:54:26;;;;;;;11.00;7.50;;;;;;;2.61;100.00;100530.23;180003;1260;45961;-66
2023/01/21 10:58:40;;;;;;;15.80;8.20;;;;;;;2.58;100.00;100528.61;180078;1260;45947;-65
2023/01/21 11:24:52;;;;;;;15.50;10.00;;;;;;;2.39;100.00;100510.75;179821;1263;43616;-66
2023/01/21 11:29:26;;;;;;;9.10;7.50;;;;;;;2.39;100.00;100507.59;179717;1263;45025;-64
2023/01/21 11:33:29;;;;;;;8.50;6.90;;;;;;;2.39;100.00;100504.25;179826;1263;57061;-64
2023/01/21 11:37:38;;;;;;;9.50;6.50;;;;;;;2.39;100.00;100499.35;179680;1263;45964;-64
2023/01/21 11:41:51;;;;;;;11.30;7.50;;;;;;;2.43;100.00;100498.98;179720;1264;46027;-67
2023/01/21 11:45:55;;;;;;;8.80;7.50;;;;;;;2.55;100.00;100491.50;179711;1263;46154;-65
2023/01/21 11:50:21;;;;;;;11.20;6.40;;;;;;;2.63;100.00;100486.94;179491;1263;365590;-63
2023/01/21 11:54:24;;;;;;;7.20;6.40;;;;;;;2.63;100.00;100484.44;180041;1260;59311;-63
2023/01/21 11:59:24;;;;;;;8.50;7.20;;;;;;;2.62;100.00;100485.20;180417;1259;43593;-64
2023/01/21 12:03:41;;;;;;;8.70;7.20;;;;;;;2.55;100.00;100482.87;180173;1260;43897;-64
2023/01/21 12:07:49;;;;;;;9.20;5.40;;;;;;;2.46;100.00;100474.91;180227;1261;43898;-65
2023/01/21 12:12:25;;;;;;;9.90;6.30;;;;;;;2.43;100.00;100472.23;180339;1260;43976;-63
2023/01/21 12:17:10;;;;;;;13.40;7.60;;;;;;;2.45;100.00;100469.70;180234;1260;58071;-62
2023/01/21 12:21:37;;;;;;;6.90;6.00;;;;;;;2.44;100.00;100468.51;180118;1260;43927;-63
2023/01/21 12:25:49;;;;;;;;;;;;;;;2.40;100.00;100462.90;180023;1260;45908;-63
2023/01/21 12:30:11;;;;;;;7.20;6.20;;;;;;;2.30;100.00;100467.20;179931;1259;44704;-63
2023/01/21 12:34:23;;;;;;;7.80;5.80;;;;;;;2.28;100.00;100464.64;179959;1260;43791;-62
2023/01/21 12:38:37;;;;;;;8.80;6.10;;;;;;;2.26;100.00;100461.08;179961;1260;58254;-63
2023/01/21 12:42:47;;;;;;;7.40;5.40;;;;;;;2.22;100.00;100458.29;180111;1260;43955;-67
2023/01/21 12:46:58;;;;;;;8.20;6.50;;;;;;;2.26;100.00;100453.91;179894;1260;45441;-70
2023/01/21 12:51:08;;;;;;;10.80;6.50;;;;;;;2.28;100.00;100456.26;180068;1260;44455;-64
2023/01/21 12:55:40;;;;;;;20.50;7.50;;;;;;;2.34;100.00;100455.84;180029;1265;44954;-65
2023/01/21 12:59:58;;;;;;;8.20;7.20;;;;;;;2.34;100.00;100455.48;179972;1260;58935;-65
2023/01/21 13:04:33;;;;;;;8.40;5.80;;;;;;;2.36;100.00;100456.79;180114;1260;46180;-66
2023/01/21 13:09:05;;;;;;;9.00;6.00;;;;;;;2.34;100.00;100453.19;180032;1260;44750;-68
2023/01/21 13:18:17;;;;;;;10.70;6.20;;;;;;;2.31;100.00;100447.86;178203;1268;46174;-90
2023/01/21 13:28:17;;;;;;;6.40;4.70;;;;;;;2.21;100.00;100453.77;180259;1260;77267;-69
2023/01/21 13:32:28;;;;;;;7.60;5.10;;;;;;;2.14;100.00;100452.82;179623;1263;75780;-69
2023/01/21 13:41:34;;;;;;;6.60;4.90;;;;;;;2.15;100.00;100449.31;180164;1265;44635;-72
2023/01/21 13:46:02;;;;;;;7.60;5.50;;;;;;;2.15;100.00;100452.12;180217;1268;56913;-74
2023/01/21 13:50:14;;;;;;;7.50;5.60;;;;;;;2.17;100.00;100448.89;180051;1266;44591;-75
2023/01/21 13:54:41;;;;;;;7.90;6.50;;;;;;;2.14;100.00;100454.39;179829;1266;45995;-74
2023/01/21 13:58:47;;;;;;;;;;;;;;;2.12;100.00;100452.90;179517;1269;43570;-74
2023/01/21 14:03:00;;;;;;;7.00;6.20;;;;;;;2.12;100.00;100449.23;178042;1266;45866;-73
2023/01/21 14:07:11;;;;;;;8.30;5.60;;;;;;;2.10;100.00;100454.60;177467;1265;58428;-75
2023/01/21 14:11:24;;;;;;;8.00;6.10;;;;;;;2.07;100.00;100458.90;178213;1266;45991;-76
2023/01/21 14:20:53;;;;;;;11.50;7.00;;;;;;;2.08;100.00;100463.42;180225;1265;45025;-72
2023/01/21 14:25:00;;;;;;;5.90;4.60;;;;;;;2.04;100.00;100463.94;179926;1264;46005;-72
2023/01/21 14:29:32;;;;;;;9.00;6.30;;;;;;;2.05;100.00;100464.79;180122;1265;58447;-68
2023/01/21 14:34:05;;;;;;;11.10;8.80;;;;;;;2.04;100.00;100469.03;179907;1267;45203;-70
2023/01/21 14:38:46;;;;;;;10.40;4.80;;;;;;;2.02;100.00;100475.95;179717;1267;43572;-70
2023/01/21 14:42:53;;;;;;;11.90;6.90;;;;;;;1.94;100.00;100476.81;179720;1267;44837;-66
2023/01/21 14:47:37;;;;;;;12.20;7.40;;;;;;;1.95;100.00;100486.04;179602;1266;46062;-67
2023/01/21 14:56:31;;;;;;;7.50;5.10;;;;;;;1.98;100.00;100499.19;138612;1292;46305;-85
2023/01/21 15:00:36;;;;;;;6.70;5.50;;;;;;;1.97;100.00;100500.95;176463;1268;46802;-85
2023/01/21 15:04:52;;;;;;;8.70;4.60;;;;;;;1.96;100.00;100502.22;176516;1270;46062;-85
2023/01/21 15:08:58;;;;;;;6.70;5.40;;;;;;;1.95;100.00;100502.44;177009;1266;46060;-85
2023/01/21 15:13:25;;;;;;;9.90;6.60;;;;;;;1.94;100.00;100504.59;177142;1267;58105;-85
2023/01/21 15:17:53;;;;;;;4.80;3.90;;;;;;;1.95;100.00;100506.66;177685;1270;46090;-85
2023/01/21 15:21:58;;;;;;;6.80;4.40;;;;;;;1.97;100.00;100510.97;177003;1269;46134;-84
2023/01/21 15:26:07;;;;;;;8.00;6.50;;;;;;;1.95;100.00;100517.86;176735;1269;45949;-84
2023/01/21 15:30:13;;;;;;;6.70;4.40;;;;;;;1.97;100.00;100525.80;176895;1270;46449;-84
2023/01/21 15:34:20;;;;;;;6.80;4.60;;;;;;;1.97;100.00;100529.51;176912;1270;59257;-84
2023/01/21 15:38:25;;;;;;;7.40;6.30;;;;;;;1.99;100.00;100533.23;176710;1266;46122;-85
2023/01/21 15:42:38;;;;;;;7.80;5.40;;;;;;;2.01;100.00;100535.30;176918;1270;46226;-85
2023/01/21 15:47:07;;;;;;;6.70;6.00;;;;;;;2.01;100.00;100537.54;176053;1270;46277;-84
2023/01/21 15:51:24;;;;;;;9.30;6.90;;;;;;;2.05;100.00;100543.15;176299;1269;46155;-85
2023/01/21 15:55:30;;;;;;;4.40;3.90;;;;;;;2.05;100.00;100549.98;176075;1270;58386;-85
2023/01/21 15:59:54;;;;;;;7.80;5.10;;;;;;;2.04;100.00;100555.27;176351;1267;45875;-86
2023/01/21 16:04:24;;;;;;;8.70;5.70;;;;;;;2.07;100.00;100560.02;176771;1270;45982;-86
2023/01/21 16:08:52;;;;;;;6.60;4.40;;;;;;;2.09;100.00;100564.69;176804;1267;46061;-85
2023/01/21 16:13:22;;;;;;;8.00;6.90;;;;;;;2.14;100.00;100564.30;176203;1271;45936;-85
2023/01/21 16:17:44;;;;;;;6.60;4.80;;;;;;;2.14;100.00;100571.61;176714;1269;58606;-85
2023/01/21 16:21:53;;;;;;;6.60;5.50;;;;;;;2.19;100.00;100573.55;176223;1270;46042;-85
2023/01/21 16:25:56;;;;;;;5.90;5.40;;;;;;;2.20;100.00;100575.79;176981;1267;44263;-85
2023/01/21 16:30:33;;;;;;;6.70;5.60;;;;;;;2.20;100.00;100576.67;176467;1267;46170;-85
2023/01/21 16:34:40;;;;;;;8.00;7.10;;;;;;;2.20;100.00;100579.80;176744;1265;46010;-85
2023/01/21 16:38:46;;;;;;;13.00;9.10;;;;;;;2.19;100.00;100583.34;176447;1269;58282;-85
2023/01/21 16:43:05;;;;;;;8.50;6.70;;;;;;;2.18;100.00;100583.56;176044;1267;46225;-85
2023/01/21 16:47:31;;;;;;;10.70;8.20;;;;;;;2.19;100.00;100586.52;176999;1267;46009;-86
2023/01/21 16:51:40;;;;;;;9.10;7.30;;;;;;;2.21;100.00;100590.80;176200;1267;46056;-85
2023/01/21 16:55:48;;;;;;;11.30;9.50;;;;;;;2.23;100.00;100600.31;176674;1266;45970;-85
2023/01/21 16:59:54;;;;;;;14.60;10.10;;;;;;;2.28;100.00;100600.29;176602;1267;59584;-85
2023/01/21 17:04:00;;;;;;;20.40;12.00;;;;;;;2.30;100.00;100609.65;176229;1266;46150;-85
2023/01/21 17:08:10;;;;;;;20.60;13.70;;;;;;;2.33;100.00;100607.80;176867;1267;46122;-85
2023/01/21 17:12:24;;;;;;;21.00;14.20;;;;;;;2.35;100.00;100611.54;176825;1267;46034;-85
2023/01/21 17:16:32;;;;;;;18.60;12.10;;;;;;;2.34;100.00;100613.88;176789;1267;46031;-85
2023/01/21 17:20:43;;;;;;;19.00;12.20;;;;;;;2.33;100.00;100620.90;176377;1269;58108;-85
2023/01/21 17:25:01;;;;;;;17.40;11.30;;;;;;;2.34;100.00;100627.34;176708;1267;46087;-85
2023/01/21 17:29:09;;;;;;;16.80;11.30;;;;;;;2.34;100.00;100629.27;176843;1267;46062;-86
2023/01/21 17:33:33;;;;;;;18.00;12.20;;;;;;;2.35;100.00;100631.16;176897;1266;45989;-86
2023/01/21 17:38:00;;;;;;;12.50;11.20;;;;;;;2.35;100.00;100632.21;176845;1267;46028;-85
2023/01/21 17:42:03;;;;;;;;;;;;;;;2.33;100.00;100640.33;175972;1270;59394;-86
2023/01/21 17:46:12;;;;;;;15.00;8.90;;;;;;;2.33;100.00;100637.55;176811;1269;45901;-86
2023/01/21 17:50:29;;;;;;;16.90;9.70;;;;;;;2.32;100.00;100643.33;176538;1267;46131;-86
2023/01/21 17:54:34;;;;;;;12.50;11.20;;;;;;;2.29;100.00;100648.91;176842;1267;46229;-85
2023/01/21 17:58:47;;;;;;;11.90;8.80;;;;;;;2.32;100.00;100653.68;176772;1265;45998;-85
2023/01/21 18:02:50;;;;;;;14.60;11.60;;;;;;;2.33;100.00;100661.84;177156;1267;58443;-85
2023/01/21 18:06:55;;;;;;;20.50;14.00;;;;;;;2.31;100.00;100665.77;176373;1267;46151;-86
2023/01/21 18:10:58;;;;;;;23.10;16.90;;;;;;;2.33;100.00;100671.30;176694;1266;46010;-85
2023/01/21 18:15:01;;;;;;;26.60;15.70;;;;;;;2.36;100.00;100678.92;177075;1267;46133;-85
2023/01/21 18:19:10;;;;;;;17.50;15.60;;;;;;;2.38;100.00;100684.93;176336;1267;46167;-85
2023/01/21 18:23:16;;;;;;;12.60;10.60;;;;;;;2.38;100.00;100689.14;177474;1270;59722;-86
2023/01/21 18:27:22;;;;;;;11.40;9.20;;;;;;;2.41;100.00;100694.63;177357;1267;46587;-85
2023/01/21 18:31:28;;;;;;;13.80;8.70;;;;;;;2.40;100.00;100696.78;176054;1267;46129;-85
2023/01/21 18:35:31;;;;;;;13.80;9.30;;;;;;;2.40;100.00;100699.39;176848;1265;46359;-85
2023/01/21 18:39:35;;;;;;;12.40;11.20;;;;;;;2.41;100.00;100706.36;176422;1266;46114;-85
2023/01/21 18:43:40;;;;;;;12.90;9.40;;;;;;;2.41;100.00;100710.55;176578;1267;59619;-86
2023/01/21 18:47:47;;;;;;;13.30;9.80;;;;;;;2.37;100.00;100715.79;176698;1267;46501;-85
2023/01/21 18:51:51;;;;;;;10.70;8.00;;;;;;;2.37;100.00;100724.89;176612;1267;46142;-85
2023/01/21 18:55:55;;;;;;;15.40;11.20;;;;;;;2.37;100.00;100728.74;176486;1266;45972;-86
2023/01/21 19:00:17;;;;;;;14.40;11.40;;;;;;;2.36;100.00;100732.48;176334;1267;45970;-86
2023/01/21 19:04:20;;;;;;;15.50;11.20;;;;;;;2.36;100.00;100738.58;176243;1267;58738;-86
2023/01/21 19:08:26;;;;;;;18.40;11.70;;;;;;;2.40;100.00;100743.30;177340;1267;44986;-86
2023/01/21 19:12:35;;;;;;;17.10;11.80;;;;;;;2.42;100.00;100748.67;177737;1267;46062;-91
2023/01/21 19:16:59;;;;;;;19.50;11.20;;;;;;;2.44;100.00;100746.65;178335;1267;45975;-89
2023/01/21 19:21:04;;;;;;;16.30;10.50;;;;;;;2.45;100.00;100747.17;178056;1267;46037;-89
2023/01/21 19:25:18;;;;;;;20.70;12.20;;;;;;;2.46;100.00;100744.34;178738;1267;58440;-90
2023/01/21 19:47:51;;;;;;;13.10;10.10;;;;;;;2.47;100.00;100767.73;175031;1267;58115;-68
2023/01/21 19:51:54;;;;;;;16.80;10.90;;;;;;;2.51;100.00;100770.19;179164;1268;45139;-68
2023/01/21 19:56:06;;;;;;;18.90;12.40;;;;;;;2.53;100.00;100781.33;179135;1268;44751;-68
2023/01/21 20:00:22;;;;;;;19.60;13.40;;;;;;;2.50;100.00;100788.27;179248;1267;45451;-69
2023/01/21 20:04:25;;;;;;;19.50;11.70;;;;;;;2.45;100.00;100795.13;179041;1271;45916;-67
2023/01/21 20:08:29;;;;;;;19.10;14.70;;;;;;;2.42;100.00;100797.50;179134;1267;58561;-68
2023/01/21 20:12:32;;;;;;;17.50;12.90;;;;;;;2.39;100.00;100802.36;179158;1268;46174;-68
2023/01/21 20:16:45;;;;;;;20.90;12.80;;;;;;;2.40;100.00;100808.11;179173;1267;45901;-68
2023/01/21 20:20:50;;;;;;;24.80;16.20;;;;;;;2.37;100.00;100800.66;179489;1272;45945;-68
2023/01/21 20:24:56;;;;;;;25.30;16.90;;;;;;;2.36;100.00;100800.73;179215;1267;43644;-66
2023/01/21 20:29:15;;;;;;;25.80;17.90;;;;;;;2.36;100.00;100811.60;179217;1267;58415;-67
2023/01/21 20:33:25;;;;;;;35.80;19.90;;;;;;;2.40;100.00;100819.14;179082;1267;45880;-67
2023/01/21 20:37:29;;;;;;;34.30;18.70;;;;;;;2.42;100.00;100821.15;179163;1267;43734;-66
2023/01/21 20:41:32;;;;;;;36.40;17.40;;;;;;;2.44;100.00;100831.91;179226;1272;45896;-66
2023/01/21 20:45:46;;;;;;;22.20;17.50;;;;;;;2.48;100.00;100837.89;179243;1268;43607;-67
2023/01/21 20:49:49;;;;;;;30.20;18.60;;;;;;;2.52;100.00;100838.45;179109;1267;60037;-66